SCCY/GXQ METAR and TAF weather

Enter ICAO airport designator
Station Type Date Time Source
SCCY METAR 2024/06/06 14:00 UTC NOAA

SCCY 061400Z 24004KT 4000 BR FEW003 SCT020 BKN030 06/05 Q1008


Station Type Date Time Source
SCCY Decoded METAR 2024/06/06 14:00 UTC NOAA

Coyhaique, Chile (SCCY) 45-35S 072-07W
Jun 06, 2024 - 10:00 AM EDT / 2024.06.06 1400 UTC
Wind: from the WSW (240 degrees) at 5 MPH (4 KT):0
Visibility: 2 mile(s):0
Sky conditions: mostly cloudy
Weather: mist
Temperature: 42 F (6 C)
Dew Point: 41 F (5 C)
Relative Humidity: 93%
Pressure (altimeter): 29.77 in. Hg (1008 hPa)
ob: SCCY 061400Z 24004KT 4000 BR FEW003 SCT020 BKN030 06/05 Q1008
cycle: 14

Station Type Date Time Source
SCCY TAF 2024/06/15 12:48 UTC NOAA